Time;durP1;ratioP1;P1;durP2;ratioP2;P2;SDS_P1;SDS_P2;PMS_P1;PMS_P2;Temp;Humidity;BMP_temperature;BMP_pressure;BME280_temperature;BME280_humidity;BME280_pressure;Samples;Min_cycle;Max_cycle;Signal;HPM_P1;HPM_P2
2022/05/16 00:02:20;;;;;;;11.20;4.30;;;16.50;99.90;;;;;;4968567;28;20204;-82
2022/05/16 00:04:49;;;;;;;10.48;3.70;;;16.50;99.90;;;;;;4969936;28;20287;-84
2022/05/16 00:07:19;;;;;;;13.10;4.50;;;16.50;99.90;;;;;;4970156;28;20215;-82
2022/05/16 00:09:46;;;;;;;9.23;3.97;;;16.50;99.90;;;;;;4969393;28;20243;-84
2022/05/16 00:12:14;;;;;;;12.65;3.83;;;16.40;99.90;;;;;;4969514;28;20231;-82
2022/05/16 00:14:42;;;;;;;9.38;4.35;;;16.40;99.90;;;;;;4969056;28;20208;-84
2022/05/16 00:17:09;;;;;;;10.98;3.45;;;16.40;99.90;;;;;;4969197;28;20213;-85
2022/05/16 00:19:36;;;;;;;10.05;4.28;;;16.40;99.90;;;;;;4970888;28;20208;-85
2022/05/16 00:22:03;;;;;;;8.27;3.67;;;16.40;99.90;;;;;;4972237;28;20201;-83
2022/05/16 00:24:31;;;;;;;10.43;4.00;;;16.30;99.90;;;;;;4968143;28;20200;-84
2022/05/16 00:26:59;;;;;;;11.70;3.90;;;16.30;99.90;;;;;;4969728;28;20231;-82
2022/05/16 00:29:27;;;;;;;10.55;3.63;;;16.30;99.90;;;;;;4971584;28;20204;-86
2022/05/16 00:31:54;;;;;;;9.55;3.45;;;16.20;99.90;;;;;;4971033;28;20236;-82
2022/05/16 00:34:21;;;;;;;8.88;3.90;;;16.20;99.90;;;;;;4971404;28;20657;-83
2022/05/16 00:36:48;;;;;;;8.63;3.40;;;16.20;99.90;;;;;;4970298;28;20216;-82
2022/05/16 00:39:15;;;;;;;9.00;3.40;;;16.10;99.90;;;;;;4970698;28;20652;-85
2022/05/16 00:41:44;;;;;;;10.52;3.58;;;16.10;99.90;;;;;;4969964;28;20276;-83
2022/05/16 00:44:12;;;;;;;13.43;3.45;;;16.10;99.90;;;;;;4969630;28;20204;-82
2022/05/16 00:46:39;;;;;;;11.25;3.67;;;16.10;99.90;;;;;;4970782;28;20209;-83
2022/05/16 00:49:10;;;;;;;10.23;3.58;;;16.10;99.90;;;;;;4970065;28;20917;-83
2022/05/16 00:51:42;;;;;;;13.20;3.70;;;16.10;99.90;;;;;;4969753;28;20613;-84
2022/05/16 00:54:11;;;;;;;8.65;3.47;;;16.10;99.90;;;;;;4970993;28;20189;-84
2022/05/16 00:56:39;;;;;;;9.82;3.30;;;16.10;99.90;;;;;;4970758;28;20207;-84
2022/05/16 00:59:08;;;;;;;8.90;3.90;;;16.00;99.90;;;;;;4971661;28;20243;-86
2022/05/16 01:07:04;;;;;;;8.25;3.20;;;16.00;99.90;;;;;;4990500;28;20267;-85
2022/05/16 01:09:31;;;;;;;11.53;3.60;;;16.00;99.90;;;;;;4973188;28;20256;-83
2022/05/16 01:12:00;;;;;;;8.02;3.38;;;16.00;99.90;;;;;;4969405;28;20212;-83
2022/05/16 01:14:47;;;;;;;9.25;3.25;;;16.00;99.90;;;;;;4980326;28;20214;-84
2022/05/16 01:17:14;;;;;;;7.28;3.00;;;16.10;99.90;;;;;;4990263;28;20203;-85
2022/05/16 01:19:41;;;;;;;11.77;3.83;;;16.10;99.90;;;;;;4990604;28;20200;-85
2022/05/16 01:22:17;;;;;;;10.75;3.00;;;16.00;99.90;;;;;;4972838;28;20204;-84
2022/05/16 01:24:44;;;;;;;10.25;3.78;;;16.00;99.90;;;;;;4970950;28;20235;-85
2022/05/16 01:27:11;;;;;;;6.57;2.90;;;16.00;99.90;;;;;;4971154;28;20212;-83
2022/05/16 01:29:37;;;;;;;10.35;3.45;;;16.00;99.90;;;;;;4969691;28;20209;-83
2022/05/16 01:32:05;;;;;;;9.68;3.20;;;16.10;99.90;;;;;;4971469;28;20201;-83
2022/05/16 01:34:32;;;;;;;7.05;3.28;;;16.10;99.90;;;;;;4969542;28;20197;-84
2022/05/16 01:36:59;;;;;;;10.98;3.30;;;16.10;99.90;;;;;;4988130;28;20633;-84
2022/05/16 01:39:27;;;;;;;7.78;3.38;;;16.10;99.90;;;;;;4990009;28;20230;-86
2022/05/16 01:41:54;;;;;;;14.52;3.22;;;16.00;99.90;;;;;;4990546;28;20219;-83
2022/05/16 01:44:20;;;;;;;5.85;2.88;;;16.10;99.90;;;;;;4992457;28;20200;-84
2022/05/16 01:46:47;;;;;;;12.00;3.40;;;16.00;99.90;;;;;;4997632;28;20548;-84
2022/05/16 01:49:14;;;;;;;14.80;3.53;;;16.00;99.90;;;;;;5012571;28;20211;-85
2022/05/16 01:51:41;;;;;;;8.40;3.30;;;16.00;99.90;;;;;;5015131;28;20207;-85
2022/05/16 01:54:08;;;;;;;11.32;3.53;;;16.00;99.90;;;;;;4984581;28;20225;-84
2022/05/16 01:56:37;;;;;;;11.57;3.40;;;15.90;99.90;;;;;;4974865;28;20565;-85
2022/05/16 01:59:06;;;;;;;12.50;3.63;;;15.90;99.90;;;;;;4974345;28;20204;-85
2022/05/16 02:01:33;;;;;;;7.22;2.97;;;15.90;99.90;;;;;;4974000;28;20196;-86
2022/05/16 02:04:00;;;;;;;10.30;3.45;;;15.90;99.90;;;;;;4974758;28;20201;-85
2022/05/16 02:06:27;;;;;;;7.57;3.08;;;15.90;99.90;;;;;;4980640;28;20576;-85
2022/05/16 02:08:54;;;;;;;10.85;3.63;;;15.90;99.90;;;;;;5013249;28;20238;-86
2022/05/16 02:11:21;;;;;;;8.27;3.35;;;15.80;99.90;;;;;;5013061;28;20214;-86
2022/05/16 02:13:49;;;;;;;11.95;3.50;;;15.80;99.90;;;;;;5010882;28;20239;-85
2022/05/16 02:16:16;;;;;;;7.55;3.33;;;15.80;99.90;;;;;;4993187;28;20207;-85
2022/05/16 02:18:43;;;;;;;6.88;3.05;;;15.70;99.90;;;;;;4982857;28;20223;-84
2022/05/16 02:26:38;;;;;;;10.80;3.40;;;15.70;99.90;;;;;;4993230;28;20299;-84
2022/05/16 02:29:07;;;;;;;12.93;4.20;;;15.60;99.90;;;;;;4981246;28;20509;-84
2022/05/16 02:31:34;;;;;;;9.52;3.80;;;15.60;99.90;;;;;;4973945;28;20602;-85
2022/05/16 02:34:01;;;;;;;8.38;3.83;;;15.60;99.90;;;;;;4973228;28;20242;-84
2022/05/16 02:36:28;;;;;;;6.50;2.90;;;15.60;99.90;;;;;;4973774;28;20232;-84
2022/05/16 02:38:54;;;;;;;10.23;3.78;;;15.50;99.90;;;;;;4973096;28;20227;-85
2022/05/16 02:41:21;;;;;;;9.50;4.07;;;15.50;99.90;;;;;;4973176;28;20232;-86
2022/05/16 02:43:48;;;;;;;10.65;3.95;;;15.50;99.90;;;;;;4972908;28;20217;-85
2022/05/16 02:46:17;;;;;;;9.07;4.40;;;15.50;99.90;;;;;;4972975;28;20505;-84
2022/05/16 02:48:43;;;;;;;12.40;4.72;;;15.40;99.90;;;;;;4975803;28;20265;-85
2022/05/16 02:51:10;;;;;;;10.00;4.03;;;15.40;99.90;;;;;;4991796;28;20214;-85
2022/05/16 02:53:37;;;;;;;11.55;4.05;;;15.40;99.90;;;;;;4981097;28;20228;-84
2022/05/16 02:56:04;;;;;;;11.43;4.60;;;15.50;99.90;;;;;;4971415;28;20201;-82
2022/05/16 02:58:31;;;;;;;7.82;3.42;;;15.50;99.90;;;;;;4972750;28;20212;-85
2022/05/16 03:00:58;;;;;;;12.55;4.15;;;15.40;99.90;;;;;;4972438;28;20489;-84
2022/05/16 03:03:26;;;;;;;8.13;3.87;;;15.30;99.90;;;;;;4973310;28;20485;-85
2022/05/16 03:05:53;;;;;;;7.85;3.85;;;15.30;99.90;;;;;;4985101;28;20207;-85
2022/05/16 03:08:19;;;;;;;9.40;4.35;;;15.30;99.90;;;;;;5010885;28;20261;-85
2022/05/16 03:10:46;;;;;;;8.00;3.45;;;15.30;99.90;;;;;;5010754;28;20638;-85
2022/05/16 03:13:13;;;;;;;13.02;4.53;;;15.20;99.90;;;;;;4975139;28;20315;-84
2022/05/16 03:15:40;;;;;;;8.30;4.07;;;15.20;99.90;;;;;;4972026;28;20215;-84
2022/05/16 03:18:07;;;;;;;11.27;4.25;;;15.20;99.90;;;;;;4972460;28;20207;-85
2022/05/16 03:20:35;;;;;;;7.65;3.65;;;15.20;99.90;;;;;;4972598;28;20230;-85
2022/05/16 03:23:03;;;;;;;12.57;4.07;;;15.20;99.90;;;;;;4991088;28;20208;-85
2022/05/16 03:25:30;;;;;;;8.70;3.83;;;15.10;99.90;;;;;;4983756;28;20291;-86
2022/05/16 03:27:57;;;;;;;8.47;4.17;;;15.10;99.90;;;;;;4973001;28;20196;-84
2022/05/16 03:30:24;;;;;;;10.70;4.57;;;15.10;99.90;;;;;;4978158;28;20211;-85
2022/05/16 03:32:51;;;;;;;10.23;4.43;;;15.00;99.90;;;;;;4991755;28;20551;-85
2022/05/16 03:35:18;;;;;;;17.08;4.60;;;15.00;99.90;;;;;;4991774;28;20234;-84
2022/05/16 03:37:46;;;;;;;10.48;4.60;;;15.00;99.90;;;;;;4975414;28;20247;-86
2022/05/16 03:42:59;;;;;;;11.43;4.27;;;15.00;99.90;;;;;;4971963;28;20192;-85
2022/05/16 03:45:26;;;;;;;11.47;4.37;;;15.00;99.90;;;;;;4972682;28;20212;-84
2022/05/16 03:47:53;;;;;;;10.65;5.05;;;15.00;99.90;;;;;;4970877;28;20212;-86
2022/05/16 03:50:20;;;;;;;10.32;4.47;;;15.00;99.90;;;;;;4971824;28;20204;-83
2022/05/16 03:52:48;;;;;;;8.83;4.90;;;15.00;99.90;;;;;;4978709;28;20789;-85
2022/05/16 03:55:17;;;;;;;9.45;5.10;;;15.00;99.90;;;;;;4991968;28;20203;-84
2022/05/16 03:57:44;;;;;;;14.98;5.35;;;15.00;99.90;;;;;;4980602;28;20514;-85
2022/05/16 04:00:18;;;;;;;11.43;5.90;;;15.00;99.90;;;;;;4973171;28;20215;-84
2022/05/16 04:02:45;;;;;;;9.13;4.73;;;15.00;99.90;;;;;;4968436;28;20216;-85
2022/05/16 04:05:16;;;;;;;11.67;5.33;;;15.00;99.90;;;;;;4967594;28;20208;-86
2022/05/16 04:07:46;;;;;;;8.50;5.47;;;15.00;99.90;;;;;;4970248;28;20858;-84
2022/05/16 04:10:16;;;;;;;13.88;5.13;;;15.00;99.90;;;;;;4970945;28;20247;-84
2022/05/16 04:12:43;;;;;;;12.77;5.07;;;15.00;99.90;;;;;;4971402;28;20193;-84
2022/05/16 04:15:12;;;;;;;12.25;5.85;;;15.00;99.90;;;;;;4971019;28;20211;-84
2022/05/16 04:17:39;;;;;;;10.85;5.47;;;15.00;99.90;;;;;;4971794;28;20243;-85
2022/05/16 04:20:08;;;;;;;12.17;5.47;;;15.00;99.90;;;;;;4971383;28;20680;-85
2022/05/16 04:22:35;;;;;;;13.10;5.40;;;15.10;99.90;;;;;;4971824;28;20197;-85
2022/05/16 04:25:02;;;;;;;14.93;5.25;;;15.10;99.90;;;;;;4972064;28;20208;-85
2022/05/16 04:27:30;;;;;;;11.45;5.07;;;15.20;99.90;;;;;;4971074;28;20514;-81
2022/05/16 04:29:57;;;;;;;11.80;5.10;;;15.20;99.90;;;;;;4969680;28;20216;-85
2022/05/16 04:32:23;;;;;;;9.45;4.72;;;15.30;99.90;;;;;;4971268;28;20203;-84
2022/05/16 04:34:51;;;;;;;13.15;5.50;;;15.40;99.90;;;;;;4971310;28;20239;-85
2022/05/16 04:37:17;;;;;;;7.90;4.20;;;15.50;99.90;;;;;;4971923;28;20259;-84
2022/05/16 04:39:44;;;;;;;11.13;4.95;;;15.50;99.90;;;;;;4971981;28;20204;-85
2022/05/16 04:44:57;;;;;;;7.38;4.10;;;15.60;99.90;;;;;;4972987;28;20239;-85
2022/05/16 04:47:26;;;;;;;11.00;4.72;;;15.60;99.90;;;;;;4971941;28;20196;-85
2022/05/16 04:49:52;;;;;;;7.20;4.25;;;15.60;99.90;;;;;;4970642;28;20208;-84
2022/05/16 04:52:19;;;;;;;11.88;4.75;;;15.70;99.90;;;;;;4972317;28;20232;-85
2022/05/16 04:54:48;;;;;;;12.88;5.32;;;15.70;99.90;;;;;;4971091;28;20225;-85
2022/05/16 04:57:15;;;;;;;7.85;4.38;;;15.70;99.90;;;;;;4971978;28;20581;-85
2022/05/16 04:59:42;;;;;;;13.00;4.75;;;15.80;99.90;;;;;;4971801;28;20231;-85
2022/05/16 05:02:10;;;;;;;10.60;5.00;;;15.70;99.90;;;;;;4971946;28;20212;-84
2022/05/16 05:04:37;;;;;;;8.30;4.40;;;15.70;99.90;;;;;;4970682;28;20231;-84
2022/05/16 05:07:04;;;;;;;8.05;4.68;;;15.80;99.90;;;;;;4971642;28;20208;-85
2022/05/16 05:09:31;;;;;;;11.95;4.88;;;15.90;99.90;;;;;;4971393;28;20240;-85
2022/05/16 05:14:42;;;;;;;10.02;5.15;;;16.00;99.90;;;;;;4984849;28;20643;-85
2022/05/16 05:17:12;;;;;;;14.70;5.18;;;16.10;99.90;;;;;;4991630;28;20212;-84
2022/05/16 05:19:40;;;;;;;11.77;4.65;;;16.20;99.90;;;;;;4993041;28;20219;-85
2022/05/16 05:22:08;;;;;;;10.35;4.50;;;16.30;99.90;;;;;;4989820;28;20327;-85
2022/05/16 05:24:35;;;;;;;8.32;4.65;;;16.50;99.90;;;;;;4976198;28;20203;-86
2022/05/16 05:27:01;;;;;;;8.32;4.05;;;16.70;99.90;;;;;;4975886;28;20208;-84
2022/05/16 05:29:28;;;;;;;7.28;4.72;;;16.90;99.90;;;;;;4976284;28;20208;-86
2022/05/16 05:31:55;;;;;;;9.00;4.53;;;17.10;99.90;;;;;;4976193;28;20223;-85
2022/05/16 05:34:23;;;;;;;8.77;4.28;;;17.40;99.90;;;;;;4960379;28;20641;-85
2022/05/16 05:36:50;;;;;;;8.55;4.35;;;17.80;99.90;;;;;;4976641;28;20212;-86
2022/05/16 05:39:17;;;;;;;9.85;3.80;;;18.20;99.90;;;;;;4976192;28;20229;-85
2022/05/16 05:41:44;;;;;;;8.77;4.57;;;18.40;99.90;;;;;;4976842;28;20212;-86
2022/05/16 05:44:12;;;;;;;8.18;4.70;;;18.70;99.90;;;;;;4991285;28;20197;-85
2022/05/16 05:46:40;;;;;;;12.40;4.43;;;18.90;99.90;;;;;;4990457;28;20236;-85
2022/05/16 05:49:09;;;;;;;10.38;4.18;;;19.30;99.90;;;;;;4981785;28;20208;-85
2022/05/16 05:51:38;;;;;;;7.82;4.10;;;19.50;99.90;;;;;;4979363;28;20224;-84
2022/05/16 05:54:05;;;;;;;6.60;3.50;;;19.90;99.90;;;;;;4979982;28;20228;-83
2022/05/16 05:56:33;;;;;;;8.63;4.32;;;20.20;99.90;;;;;;4979377;28;20205;-82
2022/05/16 05:59:00;;;;;;;8.77;3.97;;;20.30;99.90;;;;;;4985173;28;20274;-86
2022/05/16 06:01:27;;;;;;;8.32;4.40;;;20.40;99.90;;;;;;4993985;28;20475;-86
2022/05/16 06:03:55;;;;;;;9.80;4.38;;;20.30;99.90;;;;;;4974705;28;20590;-86
2022/05/16 06:06:21;;;;;;;9.55;4.30;;;20.50;99.90;;;;;;4974051;28;20219;-83
2022/05/16 06:08:50;;;;;;;7.88;3.90;;;20.80;99.90;;;;;;4980168;28;20326;-86
2022/05/16 06:11:17;;;;;;;12.32;4.55;;;21.20;99.90;;;;;;4994284;28;20208;-86
2022/05/16 06:13:44;;;;;;;9.93;4.15;;;21.60;99.90;;;;;;4993724;28;20265;-85
2022/05/16 06:16:11;;;;;;;8.93;4.03;;;21.80;99.90;;;;;;4993340;28;20207;-86
2022/05/16 06:18:38;;;;;;;7.03;3.80;;;21.80;99.90;;;;;;4976825;28;20250;-84
2022/05/16 06:21:05;;;;;;;9.25;3.97;;;21.80;99.90;;;;;;4975358;28;20208;-86
2022/05/16 06:23:32;;;;;;;10.40;4.45;;;21.90;99.90;;;;;;4974567;28;20212;-85
2022/05/16 06:26:00;;;;;;;10.02;4.28;;;22.20;99.90;;;;;;4973162;28;20208;-84
2022/05/16 06:28:28;;;;;;;8.55;3.85;;;22.30;99.90;;;;;;4973400;28;20244;-87
2022/05/16 06:30:56;;;;;;;9.77;3.00;;;22.40;99.90;;;;;;4988503;28;20211;-86
2022/05/16 06:33:25;;;;;;;10.90;4.55;;;22.20;99.90;;;;;;4991671;28;20267;-86
2022/05/16 06:35:53;;;;;;;10.85;3.97;;;22.30;99.90;;;;;;4991742;28;20504;-87
2022/05/16 06:38:22;;;;;;;8.07;3.47;;;22.40;99.90;;;;;;4977094;28;20529;-86
2022/05/16 06:40:49;;;;;;;6.07;2.95;;;22.60;99.90;;;;;;4973177;28;20204;-86
2022/05/16 06:43:20;;;;;;;9.40;4.03;;;22.50;99.90;;;;;;4972859;28;20267;-87
2022/05/16 06:45:47;;;;;;;8.23;3.75;;;22.20;99.90;;;;;;4973100;28;20254;-86
2022/05/16 06:48:14;;;;;;;5.35;3.50;;;21.80;99.90;;;;;;4973211;28;20839;-86
2022/05/16 06:50:42;;;;;;;6.70;3.42;;;21.50;99.90;;;;;;4973582;28;20204;-85
2022/05/16 06:53:21;;;;;;;14.15;3.95;;;21.20;99.90;;;;;;4961154;28;20643;-86
2022/05/16 06:55:48;;;;;;;11.15;4.35;;;21.10;99.90;;;;;;4972992;28;20263;-85
2022/05/16 06:58:17;;;;;;;9.30;3.75;;;21.00;99.90;;;;;;4975369;28;20266;-85
2022/05/16 07:00:43;;;;;;;8.70;4.72;;;21.00;99.90;;;;;;4991086;28;20208;-83
2022/05/16 07:03:11;;;;;;;8.57;4.70;;;20.90;99.90;;;;;;4992049;28;20222;-86
2022/05/16 07:05:38;;;;;;;7.68;4.38;;;20.80;99.90;;;;;;4993036;28;20196;-87
2022/05/16 07:08:10;;;;;;;10.07;4.20;;;20.40;99.90;;;;;;4990864;28;20204;-88
2022/05/16 07:10:37;;;;;;;8.45;4.57;;;20.30;99.90;;;;;;4992226;28;20247;-87
2022/05/16 07:13:04;;;;;;;11.30;4.80;;;20.30;99.90;;;;;;4992473;28;20234;-87
2022/05/16 07:15:33;;;;;;;11.82;4.78;;;20.20;99.90;;;;;;4992992;28;20231;-87
2022/05/16 07:18:00;;;;;;;12.32;4.20;;;20.20;99.90;;;;;;4991948;28;20511;-86
2022/05/16 07:20:27;;;;;;;11.07;4.32;;;20.00;99.90;;;;;;4975999;28;20244;-82
2022/05/16 07:22:54;;;;;;;11.85;4.60;;;20.00;99.90;;;;;;4969616;28;20502;-85
2022/05/16 07:25:25;;;;;;;10.23;4.70;;;20.00;99.90;;;;;;4969831;28;20205;-82
2022/05/16 07:27:56;;;;;;;15.10;4.50;;;20.10;99.90;;;;;;4972450;28;20212;-81
2022/05/16 07:30:24;;;;;;;9.02;4.20;;;20.20;99.90;;;;;;4986959;28;20207;-83
2022/05/16 07:32:55;;;;;;;7.25;4.30;;;20.20;99.90;;;;;;4986301;28;20212;-82
2022/05/16 07:35:25;;;;;;;9.55;4.90;;;20.30;99.90;;;;;;4988773;28;20614;-84
2022/05/16 07:37:53;;;;;;;12.43;4.90;;;20.30;99.90;;;;;;4969317;28;20240;-82
2022/05/16 07:40:22;;;;;;;8.35;4.47;;;20.30;99.90;;;;;;4970565;28;20311;-84
2022/05/16 07:42:49;;;;;;;11.15;4.97;;;20.40;99.90;;;;;;4970094;28;20219;-82
2022/05/16 07:45:16;;;;;;;8.20;5.20;;;20.40;99.90;;;;;;4971490;28;20748;-83
2022/05/16 07:47:43;;;;;;;9.60;4.50;;;20.50;99.90;;;;;;4993113;23;20247;-84
2022/05/16 07:50:12;;;;;;;8.05;4.63;;;20.60;99.90;;;;;;4977258;28;20215;-81
2022/05/16 07:52:44;;;;;;;7.72;4.28;;;20.80;99.90;;;;;;4971908;28;20571;-94
2022/05/16 07:55:11;;;;;;;9.70;5.07;;;20.90;99.90;;;;;;4971779;28;20296;-86
2022/05/16 07:57:38;;;;;;;9.38;4.90;;;21.00;99.90;;;;;;4986682;28;20218;-86
2022/05/16 08:00:06;;;;;;;8.65;4.30;;;21.10;99.90;;;;;;4991857;28;20206;-87
2022/05/16 08:02:33;;;;;;;9.20;4.53;;;21.30;99.90;;;;;;4979613;28;20204;-85
2022/05/16 08:05:00;;;;;;;8.55;4.05;;;21.60;99.90;;;;;;4970943;28;20218;-82
2022/05/16 08:07:28;;;;;;;8.52;4.68;;;22.00;99.90;;;;;;4969928;28;20294;-84
2022/05/16 08:12:40;;;;;;;16.02;5.60;;;22.30;99.90;;;;;;4970582;28;20257;-84
2022/05/16 08:15:08;;;;;;;8.27;4.07;;;22.30;99.90;;;;;;4970273;28;20228;-86
2022/05/16 08:17:35;;;;;;;9.40;4.43;;;22.50;99.90;;;;;;4971784;28;20205;-85
2022/05/16 08:20:05;;;;;;;7.97;4.25;;;22.50;99.90;;;;;;4975000;28;20224;-88
2022/05/16 08:22:35;;;;;;;8.57;4.60;;;22.50;99.90;;;;;;4989864;28;20286;-87
2022/05/16 08:25:02;;;;;;;7.45;4.32;;;22.60;99.90;;;;;;4990326;28;20218;-87
2022/05/16 08:27:29;;;;;;;6.63;4.00;;;22.70;99.90;;;;;;4990645;28;20216;-85
2022/05/16 08:29:56;;;;;;;7.00;3.28;;;22.70;99.90;;;;;;4988231;28;20208;-81
2022/05/16 08:32:24;;;;;;;5.78;2.95;;;22.70;99.90;;;;;;4989461;28;20215;-82
2022/05/16 08:34:51;;;;;;;6.10;3.60;;;22.80;99.90;;;;;;4984078;28;20219;-83
2022/05/16 08:40:07;;;;;;;8.25;5.60;;;23.00;99.90;;;;;;4958679;28;20307;-87
2022/05/16 08:42:53;;;;;;;9.57;5.10;;;23.10;99.90;;;;;;4988341;28;20214;-84
2022/05/16 08:45:27;;;;;;;7.20;3.40;;;23.20;99.90;;;;;;4973057;28;20217;-86
2022/05/16 08:47:56;;;;;;;8.43;3.67;;;23.30;99.90;;;;;;4969229;28;20240;-83
2022/05/16 08:50:28;;;;;;;8.52;3.80;;;23.40;99.90;;;;;;4974320;28;20517;-86
2022/05/16 08:53:00;;;;;;;7.13;3.17;;;23.50;99.90;;;;;;4985606;28;20328;-84
2022/05/16 08:55:34;;;;;;;6.38;3.45;;;23.40;99.90;;;;;;4987766;28;20227;-88
2022/05/16 08:58:07;;;;;;;10.27;3.90;;;23.40;99.90;;;;;;4976037;28;20227;-85
2022/05/16 09:00:41;;;;;;;5.30;3.58;;;23.30;99.90;;;;;;4975247;28;20220;-87
2022/05/16 09:03:13;;;;;;;10.90;5.53;;;23.30;99.90;;;;;;4974424;28;20302;-83
2022/05/16 09:05:51;;;;;;;5.70;3.40;;;23.20;99.90;;;;;;4972329;28;20212;-80
2022/05/16 09:08:27;;;;;;;6.72;3.70;;;23.30;99.90;;;;;;4971609;28;20633;-85
2022/05/16 09:11:04;;;;;;;7.38;3.65;;;23.50;99.90;;;;;;4972612;28;20300;-86
2022/05/16 09:13:45;;;;;;;5.25;3.63;;;23.80;99.90;;;;;;4975258;28;20216;-86
2022/05/16 09:16:22;;;;;;;6.43;2.95;;;24.30;99.90;;;;;;4988236;28;20223;-86
2022/05/16 09:18:59;;;;;;;5.53;3.30;;;24.80;99.90;;;;;;4994934;28;20679;-88
2022/05/16 09:21:33;;;;;;;5.45;3.20;;;25.40;99.90;;;;;;4980603;28;20212;-88
2022/05/16 09:24:06;;;;;;;11.13;3.45;;;25.80;99.90;;;;;;4972076;28;20208;-85
2022/05/16 09:26:47;;;;;;;9.20;3.45;;;26.20;99.90;;;;;;4972488;28;20609;-87
2022/05/16 09:29:23;;;;;;;5.07;3.35;;;26.50;99.90;;;;;;4971866;28;20212;-87
2022/05/16 09:31:52;;;;;;;7.07;3.83;;;26.80;99.90;;;;;;4971618;28;20216;-85
2022/05/16 09:34:19;;;;;;;7.00;3.53;;;26.90;99.90;;;;;;4972518;28;20216;-85
2022/05/16 09:36:49;;;;;;;6.65;3.88;;;27.20;99.90;;;;;;4970568;28;20227;-87
2022/05/16 09:39:22;;;;;;;5.05;3.38;;;27.40;99.90;;;;;;4970907;28;20279;-82
2022/05/16 09:41:57;;;;;;;10.73;3.80;;;27.40;99.90;;;;;;4971967;28;20209;-83
2022/05/16 09:44:27;;;;;;;8.73;3.90;;;27.60;99.90;;;;;;4972720;28;20213;-86
2022/05/16 09:47:29;;;;;;;5.95;3.60;;;27.70;99.90;;;;;;4971025;28;20236;-85
2022/05/16 09:50:14;;;;;;;11.50;4.68;;;27.90;99.90;;;;;;4965451;28;20216;-84
2022/05/16 09:52:45;;;;;;;9.25;5.30;;;27.80;99.90;;;;;;4970987;28;20593;-84
2022/05/16 09:55:15;;;;;;;14.38;6.40;;;27.70;99.90;;;;;;4970385;28;20314;-83
2022/05/16 09:57:50;;;;;;;9.48;5.43;;;27.70;99.90;;;;;;4969526;28;20645;-82
2022/05/16 10:00:23;;;;;;;10.48;6.97;;;27.90;99.90;;;;;;4967986;28;20224;-85
2022/05/16 10:03:00;;;;;;;11.23;6.10;;;27.70;99.90;;;;;;4970903;28;20294;-84
2022/05/16 10:05:29;;;;;;;9.52;7.05;;;27.80;99.90;;;;;;4971285;28;20884;-81
2022/05/16 10:08:02;;;;;;;10.73;7.18;;;27.60;99.90;;;;;;4971140;28;20212;-85
2022/05/16 10:10:34;;;;;;;9.80;6.63;;;27.80;99.90;;;;;;4980071;28;20215;-83
2022/05/16 10:13:02;;;;;;;9.30;8.27;;;27.70;99.90;;;;;;4988585;28;20215;-83
2022/05/16 10:15:31;;;;;;;12.73;8.75;;;27.70;99.90;;;;;;4988712;28;20522;-83
2022/05/16 10:18:00;;;;;;;11.18;7.22;;;27.80;99.90;;;;;;4988644;28;20790;-82
2022/05/16 10:20:31;;;;;;;10.18;5.85;;;27.80;99.90;;;;;;4988985;28;20556;-84
2022/05/16 10:23:02;;;;;;;10.85;6.90;;;28.00;99.90;;;;;;4986830;28;20821;-84
2022/05/16 10:25:39;;;;;;;21.40;8.50;;;28.10;99.90;;;;;;4972685;28;20629;-88
2022/05/16 10:28:11;;;;;;;11.88;7.65;;;28.00;99.90;;;;;;4977929;28;20208;-88
2022/05/16 10:33:25;;;;;;;14.25;6.75;;;27.50;99.90;;;;;;4991489;28;20214;-87
2022/05/16 10:35:56;;;;;;;9.57;6.68;;;27.00;99.90;;;;;;4992395;28;20631;-89
2022/05/16 10:38:29;;;;;;;15.10;6.10;;;26.70;99.90;;;;;;4974471;28;20217;-89
2022/05/16 10:41:00;;;;;;;14.35;6.40;;;26.50;99.90;;;;;;4980596;28;20218;-84
2022/05/16 10:43:38;;;;;;;10.35;6.97;;;26.30;99.90;;;;;;4992512;28;20244;-88
2022/05/16 10:46:11;;;;;;;12.65;6.07;;;26.20;99.90;;;;;;4989796;28;20291;-86
2022/05/16 10:48:43;;;;;;;10.25;5.78;;;26.10;99.90;;;;;;4974988;28;20560;-86
2022/05/16 10:51:14;;;;;;;11.13;6.05;;;25.80;99.90;;;;;;4972959;28;20212;-86
2022/05/16 10:53:50;;;;;;;13.90;6.53;;;25.70;99.90;;;;;;4973765;28;20201;-89
2022/05/16 10:56:34;;;;;;;12.05;6.45;;;25.30;99.90;;;;;;4979276;28;20227;-88
2022/05/16 10:59:16;;;;;;;11.05;6.32;;;25.00;99.90;;;;;;4993865;28;20208;-89
2022/05/16 11:01:48;;;;;;;9.45;6.88;;;24.60;99.90;;;;;;4993342;28;20196;-86
2022/05/16 11:04:50;;;;;;;11.90;7.93;;;24.20;99.90;;;;;;4979819;28;20303;-87
2022/05/16 11:07:29;;;;;;;12.25;8.45;;;23.80;99.90;;;;;;4972526;28;20215;-85
2022/05/16 11:10:03;;;;;;;10.73;7.80;;;23.40;99.90;;;;;;4971614;28;20207;-81
2022/05/16 11:12:37;;;;;;;21.17;9.63;;;22.80;99.90;;;;;;4973795;28;20208;-84
2022/05/16 11:15:16;;;;;;;11.98;8.25;;;22.40;99.90;;;;;;4973017;28;20203;-87
2022/05/16 11:17:51;;;;;;;20.20;9.77;;;22.10;99.90;;;;;;4972228;28;20204;-87
2022/05/16 11:20:27;;;;;;;16.65;10.50;;;21.70;99.90;;;;;;4979749;28;20219;-87
2022/05/16 11:22:58;;;;;;;22.60;10.15;;;21.40;99.90;;;;;;4990109;28;20209;-85
2022/05/16 11:25:38;;;;;;;21.33;9.82;;;21.20;99.90;;;;;;4990927;28;20208;-86
2022/05/16 11:28:10;;;;;;;20.92;9.38;;;20.90;99.90;;;;;;4991009;28;20200;-85
2022/05/16 11:30:44;;;;;;;21.38;9.70;;;20.80;99.90;;;;;;4992007;28;20208;-84
2022/05/16 11:33:21;;;;;;;25.90;10.88;;;20.70;99.90;;;;;;4990937;28;20202;-85
2022/05/16 11:35:49;;;;;;;25.10;13.50;;;20.60;99.90;;;;;;4986247;28;20219;-85
2022/05/16 11:38:48;;;;;;;24.88;13.10;;;20.50;99.90;;;;;;4982066;28;20243;-85
2022/05/16 11:41:36;;;;;;;28.25;13.05;;;20.40;99.90;;;;;;4988167;28;20215;-84
2022/05/16 11:44:20;;;;;;;24.75;13.65;;;20.40;99.90;;;;;;4990128;28;20209;-89
2022/05/16 11:46:53;;;;;;;28.30;14.38;;;20.40;99.90;;;;;;4975697;28;20236;-84
2022/05/16 11:49:27;;;;;;;23.95;15.95;;;20.60;99.90;;;;;;4973802;28;20561;-83
2022/05/16 11:52:21;;;;;;;28.13;16.52;;;20.70;99.90;;;;;;4968232;28;20255;-85
2022/05/16 11:54:53;;;;;;;31.02;15.30;;;21.30;99.90;;;;;;4971202;28;20212;-82
2022/05/16 12:00:35;;;;;;;30.80;16.10;;;21.90;99.90;;;;;;4971152;28;20211;-87
2022/05/16 12:03:19;;;;;;;25.23;15.23;;;21.90;99.90;;;;;;4970142;28;20247;-84
2022/05/16 12:05:50;;;;;;;26.55;16.10;;;21.90;99.90;;;;;;4971702;28;20224;-86
2022/05/16 12:08:39;;;;;;;29.40;15.70;;;21.70;99.90;;;;;;4972539;28;20216;-87
2022/05/16 12:11:17;;;;;;;24.73;16.08;;;21.60;99.90;;;;;;4972074;28;20950;-87
2022/05/16 12:14:10;;;;;;;26.05;15.77;;;21.40;99.90;;;;;;4972194;28;20271;-88
2022/05/16 12:16:54;;;;;;;26.40;16.40;;;21.20;99.90;;;;;;4976295;28;20219;-88
2022/05/16 12:19:33;;;;;;;34.53;17.20;;;21.00;99.90;;;;;;4991352;28;20696;-84
2022/05/16 12:22:05;;;;;;;31.35;17.80;;;20.70;99.90;;;;;;4978682;28;20327;-87
2022/05/16 12:24:49;;;;;;;28.50;17.83;;;20.60;99.90;;;;;;4970708;28;20760;-83
2022/05/16 12:27:29;;;;;;;32.97;17.90;;;20.50;99.90;;;;;;4967244;28;20218;-84
2022/05/16 12:29:57;;;;;;;35.35;18.42;;;20.50;99.90;;;;;;4969423;28;20212;-84
2022/05/16 12:32:58;;;;;;;33.55;17.75;;;20.50;99.90;;;;;;4978654;28;20212;-88
2022/05/16 12:35:41;;;;;;;34.15;17.92;;;20.60;99.90;;;;;;4874871;29;20212;-84
2022/05/16 12:38:11;;;;;;;34.70;16.98;;;20.80;99.90;;;;;;4884392;29;20239;-87
2022/05/16 12:40:57;;;;;;;29.55;15.35;;;20.80;99.90;;;;;;4931831;28;20227;-86
2022/05/16 12:43:39;;;;;;;34.15;16.25;;;20.90;99.90;;;;;;4991908;28;20211;-87
2022/05/16 12:46:42;;;;;;;28.48;14.50;;;21.10;99.90;;;;;;4990158;28;20208;-85
2022/05/16 12:49:28;;;;;;;32.10;14.80;;;20.80;99.90;;;;;;4988224;28;20841;-86
2022/05/16 12:51:59;;;;;;;25.15;13.63;;;20.80;99.90;;;;;;4990290;28;20212;-87
2022/05/16 12:55:06;;;;;;;28.35;14.35;;;20.80;99.90;;;;;;4990053;28;20208;-87
2022/05/16 12:58:10;;;;;;;26.00;14.82;;;20.60;99.90;;;;;;4980776;28;20227;-85
2022/05/16 13:00:46;;;;;;;37.38;14.75;;;20.50;99.90;;;;;;4911205;29;20214;-86
2022/05/16 13:03:45;;;;;;;25.77;13.30;;;20.50;99.90;;;;;;4899891;29;20513;-85
2022/05/16 13:06:37;;;;;;;25.52;12.55;;;20.60;99.90;;;;;;4951609;28;20209;-84
2022/05/16 13:09:15;;;;;;;26.05;11.57;;;20.80;99.90;;;;;;4970358;28;20790;-84
2022/05/16 13:11:49;;;;;;;26.85;12.07;;;21.10;99.90;;;;;;4970506;28;20216;-86
2022/05/16 13:14:22;;;;;;;26.83;11.18;;;21.50;99.90;;;;;;4971252;28;20223;-87
2022/05/16 13:16:56;;;;;;;23.23;11.15;;;21.80;99.90;;;;;;4969781;28;20240;-87
2022/05/16 13:19:30;;;;;;;19.98;11.13;;;22.10;99.90;;;;;;4969476;28;20220;-88
2022/05/16 13:22:05;;;;;;;24.33;11.70;;;22.20;99.90;;;;;;4969527;28;20212;-87
2022/05/16 13:24:32;;;;;;;31.55;13.00;;;22.20;99.90;;;;;;4969053;28;20247;-88
2022/05/16 13:29:47;;;;;;;22.92;10.80;;;22.10;99.90;;;;;;4968645;28;20207;-85
2022/05/16 13:32:16;;;;;;;26.00;10.45;;;22.20;99.90;;;;;;4973822;28;20219;-83
2022/05/16 13:34:48;;;;;;;22.35;10.13;;;22.30;99.90;;;;;;4988587;28;20208;-83